Westrac — WTH4325 — position and weather

sailwx.info

Track history (hours):
 
Tides and Currents Weather Stations Pressure Air Temp Water Temp Dewpoint Dewpoint Depression Visibility Wind Speed Wind Dir Waves Ship Positions

Westrac

Owner: WESTERN TOWBOAT CO, SEATTLE, WA. More information available from US FCC via Universal Licensing System and Coast Guard Vessel Documentation Center.

Last reported at 2017-Nov-20 00:30 UTC. Time now 2017-Nov-20 07:49 UTC.
Position N 47°37' W 122°23'.

Length 23 m; draft 5 m.

Type: Tug. MMSI: 366993010.

Date/timePositionNaut miles runAvg speedWind from/ knotsBaromVisibWave heightAir tempDewpointWater temp
2017-Nov-20 00:30N 47°37' W 122°23'1 1.4
2017-Nov-20 00:00N 47°38' W 122°24'1 1.6
2017-Nov-19 23:30N 47°38' W 122°23'0 0.3
2017-Nov-19 23:00N 47°38' W 122°23'0 0.0
2017-Nov-19 22:30N 47°38' W 122°23'0 0.2
2017-Nov-19 22:00N 47°38' W 122°23'0 0.0
2017-Nov-19 21:30N 47°38' W 122°23'0 0.0
2017-Nov-19 21:01N 47°38' W 122°23'1 1.8
2017-Nov-19 20:30N 47°37' W 122°22'3 6.3
2017-Nov-19 20:00N 47°34' W 122°21'0 0.9
2017-Nov-19 19:30N 47°33' W 122°21'2 4.2
2017-Nov-19 19:00N 47°35' W 122°22'0 0.9
2017-Nov-19 18:30N 47°35' W 122°22'0 0.1
2017-Nov-19 18:00N 47°35' W 122°22'0 0.0
2017-Nov-19 17:30N 47°35' W 122°22'0 0.0
2017-Nov-19 17:00N 47°35' W 122°22'0 0.0
2017-Nov-19 16:30N 47°35' W 122°22'1 1.7
2017-Nov-19 16:00N 47°35' W 122°21'0 0.5
2017-Nov-19 15:30N 47°35' W 122°22'1 2.4
2017-Nov-19 15:00N 47°34' W 122°21'0 0.0
2017-Nov-19 14:30N 47°34' W 122°21'0 0.0
2017-Nov-19 14:00N 47°34' W 122°21'0 0.0
2017-Nov-19 13:30N 47°34' W 122°21'0 0.0
2017-Nov-19 13:00N 47°34' W 122°21'0 0.0
2017-Nov-19 12:30N 47°34' W 122°21'0 0.0
2017-Nov-19 12:00N 47°34' W 122°21'0 0.0
2017-Nov-19 11:30N 47°34' W 122°21'1 2.0
2017-Nov-19 11:00N 47°33' W 122°21'0 0.2
2017-Nov-19 10:30N 47°33' W 122°21'0 0.3
2017-Nov-19 10:00N 47°33' W 122°20'2 4.3
2017-Nov-19 09:30N 47°35' W 122°22'0 0.3
2017-Nov-19 09:00N 47°35' W 122°21'0 0.0
2017-Nov-19 08:30N 47°35' W 122°21'0 0.0
2017-Nov-19 07:59N 47°35' W 122°21'0 0.0
2017-Nov-19 07:30N 47°35' W 122°21'0 0.0
2017-Nov-19 07:00N 47°35' W 122°21'0 0.0
2017-Nov-19 06:30N 47°35' W 122°21'0 0.6
2017-Nov-19 06:00N 47°35' W 122°21'0 0.7
2017-Nov-19 05:30N 47°36' W 122°21'0 0.7
2017-Nov-19 05:00N 47°35' W 122°21'0 0.0
2017-Nov-19 04:30N 47°35' W 122°21'0 0.0
2017-Nov-19 04:00N 47°35' W 122°21'0 0.0
2017-Nov-19 03:30N 47°35' W 122°21'1 2.6
2017-Nov-19 03:00N 47°34' W 122°21'1 1.7
2017-Nov-19 02:30N 47°33' W 122°21'1 0.1
2017-Nov-18 18:44N 47°34' W 122°21'1 3.8
2017-Nov-18 18:30N 47°33' W 122°21'1 1.1
2017-Nov-18 18:00N 47°33' W 122°20'1 1.1
2017-Nov-18 17:30N 47°33' W 122°21'1 1.5
2017-Nov-18 17:00N 47°34' W 122°21'2 3.4
2017-Nov-18 16:30N 47°36' W 122°22'3 5.0
2017-Nov-18 16:00N 47°33' W 122°21'0 0.1
2017-Nov-18 15:30N 47°33' W 122°21'0 0.0
2017-Nov-18 15:00N 47°33' W 122°21'1 1.1
2017-Nov-18 14:30N 47°33' W 122°20'1 1.0
2017-Nov-18 14:00N 47°32' W 122°20'2 3.9
2017-Nov-18 13:30N 47°34' W 122°21'0 0.0
2017-Nov-18 13:00N 47°34' W 122°21'0 0.0
2017-Nov-18 12:30N 47°34' W 122°21'0 0.0
2017-Nov-18 12:00N 47°34' W 122°21'0 0.0
2017-Nov-18 11:30N 47°34' W 122°21'0 0.0
2017-Nov-18 11:00N 47°34' W 122°21'0 0.0
2017-Nov-18 10:30N 47°34' W 122°21'0 0.0
2017-Nov-18 10:00N 47°34' W 122°21'0 0.0
2017-Nov-18 09:30N 47°34' W 122°21'0 0.0
2017-Nov-18 09:00N 47°34' W 122°21'0 0.0
2017-Nov-18 08:30N 47°34' W 122°21'0 0.0
2017-Nov-18 08:00N 47°34' W 122°21'0 0.0
2017-Nov-18 07:30N 47°34' W 122°21'0 0.0
2017-Nov-18 07:00N 47°34' W 122°21'0 0.0
2017-Nov-18 06:30N 47°34' W 122°21'0 0.0
2017-Nov-18 06:00N 47°34' W 122°21'0 0.0
2017-Nov-18 05:30N 47°34' W 122°21'0 0.0
2017-Nov-18 04:58N 47°34' W 122°21'0 0.2
2017-Nov-18 04:30N 47°34' W 122°21'2 3.1
2017-Nov-18 04:00N 47°36' W 122°22'3 5.7
2017-Nov-18 03:30N 47°33' W 122°20'1 1.0
2017-Nov-18 03:00N 47°33' W 122°21'1 2.9
2017-Nov-18 02:30N 47°35' W 122°22'1 3.0
2017-Nov-18 02:00N 47°33' W 122°21'0 0.1
2017-Nov-18 01:30N 47°33' W 122°21'3 5.1
2017-Nov-18 01:00N 47°35' W 122°22'2 3.4
2017-Nov-18 00:30N 47°34' W 122°21'1 1.5
2017-Nov-18 00:00N 47°35' W 122°22'0 0.1
2017-Nov-17 23:30N 47°35' W 122°22'0 0.5
2017-Nov-17 23:00N 47°35' W 122°22'2 3.8
2017-Nov-17 22:30N 47°33' W 122°20'3 5.6
2017-Nov-17 22:00N 47°35' W 122°21'3 5.4
2017-Nov-17 21:30N 47°33' W 122°20'0 0.9
2017-Nov-17 21:00N 47°33' W 122°20'0 0.3
2017-Nov-17 20:30N 47°33' W 122°20'3 5.6
2017-Nov-17 20:00N 47°35' W 122°20'1 1.1
2017-Nov-17 19:30N 47°36' W 122°21'0 0.7
2017-Nov-17 19:00N 47°36' W 122°22'0 0.6
2017-Nov-17 18:30N 47°36' W 122°21'0 0.3
2017-Nov-17 18:00N 47°36' W 122°21'0 0.2
2017-Nov-17 17:30N 47°36' W 122°21'0 1.0
2017-Nov-17 17:00N 47°35' W 122°21'1 2.1
2017-Nov-17 16:30N 47°35' W 122°22'1 0.0
2017-Nov-16 03:09N 47°34' W 122°21'0 0.9
2017-Nov-16 03:00N 47°34' W 122°21'1 1.4
2017-Nov-16 02:30N 47°33' W 122°21'0 0.7
2017-Nov-16 02:00N 47°33' W 122°20'2 4.0
2017-Nov-16 01:30N 47°35' W 122°22'2 3.9
2017-Nov-16 01:01N 47°33' W 122°20'1 2.0
2017-Nov-16 00:30N 47°34' W 122°21'0 0.9
2017-Nov-16 00:01N 47°34' W 122°21'2 3.4
2017-Nov-15 23:30N 47°33' W 122°20'0 0.0
2017-Nov-15 23:00N 47°33' W 122°20'3 6.0
2017-Nov-15 22:30N 47°36' W 122°22'2 3.4
2017-Nov-15 22:00N 47°34' W 122°21'1 1.8
2017-Nov-15 21:30N 47°33' W 122°21'0 0.0
2017-Nov-15 21:00N 47°33' W 122°21'1 1.2
2017-Nov-15 20:30N 47°33' W 122°20'3 5.4
2017-Nov-15 20:00N 47°35' W 122°22'1 1.4
2017-Nov-15 19:30N 47°35' W 122°21'1 2.8
2017-Nov-15 19:00N 47°34' W 122°21'0 0.1
2017-Nov-15 18:30N 47°34' W 122°21'1 3.0
2017-Nov-15 18:01N 47°35' W 122°22'3 5.4
2017-Nov-15 17:29N 47°33' W 122°20'1 1.7
2017-Nov-15 17:00N 47°33' W 122°21'2 3.9
2017-Nov-15 16:30N 47°35' W 122°21'1 1.6
2017-Nov-15 16:00N 47°35' W 122°22'2 4.0
2017-Nov-15 15:30N 47°33' W 122°20'1 3.0
2017-Nov-15 15:00N 47°34' W 122°21'0 0.0
2017-Nov-15 14:30N 47°34' W 122°21'0 0.0
2017-Nov-15 14:00N 47°34' W 122°21'0 0.0
2017-Nov-15 01:56N 47°34' W 122°21'2 3.9
2017-Nov-15 01:30N 47°35' W 122°22'2 3.4
2017-Nov-15 01:00N 47°34' W 122°21'1 2.5
2017-Nov-15 00:30N 47°33' W 122°20'2 3.2
2017-Nov-15 00:00N 47°34' W 122°21'1 2.0
2017-Nov-14 23:30N 47°35' W 122°21'1 1.8
2017-Nov-14 23:00N 47°34' W 122°21'1 2.6
2017-Nov-14 22:30N 47°33' W 122°21'2 4.8
2017-Nov-14 22:00N 47°35' W 122°22'2 3.2
2017-Nov-14 21:30N 47°34' W 122°21'1 1.5
2017-Nov-14 21:00N 47°33' W 122°21'0 0.3
2017-Nov-14 20:30N 47°33' W 122°21'0 0.4
2017-Nov-14 20:00N 47°33' W 122°21'0 0.7
2017-Nov-14 19:30N 47°33' W 122°20'0 0.6
2017-Nov-14 19:00N 47°33' W 122°21'0 0.1
2017-Nov-14 18:30N 47°33' W 122°21'2 4.7
2017-Nov-14 18:00N 47°36' W 122°22'2 3.7
2017-Nov-14 17:30N 47°34' W 122°21'1 2.8
2017-Nov-14 17:00N 47°32' W 122°20'1 1.6
2017-Nov-14 16:30N 47°33' W 122°21'2 3.6
2017-Nov-14 16:00N 47°35' W 122°22'0 0.3
2017-Nov-14 15:30N 47°35' W 122°22'1 2.0
2017-Nov-14 15:00N 47°34' W 122°21'0 0.0
2017-Nov-14 14:30N 47°34' W 122°21'0 0.0
2017-Nov-14 14:00N 47°34' W 122°21'0 0.0
2017-Nov-14 13:30N 47°34' W 122°21'0 0.0
2017-Nov-14 13:00N 47°34' W 122°21'0 0.0
2017-Nov-14 12:30N 47°34' W 122°21'0 0.0
2017-Nov-14 12:00N 47°34' W 122°21'0 0.0
2017-Nov-14 11:30N 47°34' W 122°21'0 0.0
2017-Nov-14 11:00N 47°34' W 122°21'0 0.0
2017-Nov-14 10:30N 47°34' W 122°21'0 0.0
2017-Nov-14 10:00N 47°34' W 122°21'0 0.0
2017-Nov-14 09:30N 47°34' W 122°21'0 0.0
2017-Nov-14 09:00N 47°34' W 122°21'0 0.0
2017-Nov-14 08:30N 47°34' W 122°21'0 0.0
2017-Nov-14 08:00N 47°34' W 122°21'0 0.0
2017-Nov-14 07:31N 47°34' W 122°21'0 0.0
2017-Nov-14 07:00N 47°34' W 122°21'0 0.0
2017-Nov-14 06:30N 47°34' W 122°21'1 1.7
2017-Nov-14 06:00N 47°33' W 122°21'0 0.3
2017-Nov-14 05:30N 47°33' W 122°21'0 0.0
2017-Nov-14 05:00N 47°33' W 122°21'1 1.9
2017-Nov-14 04:30N 47°34' W 122°21'0 0.0
2017-Nov-14 04:00N 47°34' W 122°21'0 0.0
2017-Nov-14 03:30N 47°34' W 122°21'0 0.0
2017-Nov-14 03:00N 47°34' W 122°21'0 0.0
2017-Nov-14 02:30N 47°34' W 122°21'0 0.7
2017-Nov-14 02:00N 47°34' W 122°21'1 2.4
2017-Nov-14 01:30N 47°35' W 122°21'0 0.3
2017-Nov-14 01:00N 47°35' W 122°21'1 1.8
2017-Nov-14 00:30N 47°36' W 122°22'0 0.1
2017-Nov-14 00:00N 47°36' W 122°22'2 3.5
2017-Nov-13 23:30N 47°34' W 122°21'1 1.5
2017-Nov-13 23:00N 47°33' W 122°21'1 1.3
2017-Nov-13 22:30N 47°33' W 122°20'2 3.9
2017-Nov-13 22:00N 47°35' W 122°21'1 0.0
2017-Nov-13 02:01N 47°35' W 122°21'1 2.6
2017-Nov-13 01:30N 47°34' W 122°21'1 2.1
2017-Nov-13 01:00N 47°33' W 122°20'0 0.3
2017-Nov-13 00:30N 47°33' W 122°21'0 0.4
2017-Nov-13 00:00N 47°33' W 122°21'1 1.4
2017-Nov-12 23:30N 47°34' W 122°21'0 0.0
2017-Nov-11 22:48N 47°34' W 122°21'2 8.1
2017-Nov-11 22:30N 47°36' W 122°23'611.6
2017-Nov-11 22:00N 47°34' W 122°31'4 8.6
2017-Nov-11 21:30N 47°33' W 122°37'2 4.9
2017-Nov-11 21:00N 47°32' W 122°41'3 6.6
2017-Nov-11 20:30N 47°34' W 122°36'3 6.0
2017-Nov-11 20:00N 47°35' W 122°33'3 5.4
2017-Nov-11 19:30N 47°34' W 122°29'4 7.0
2017-Nov-11 19:00N 47°36' W 122°24'2 5.0
2017-Nov-11 18:31N 47°34' W 122°21'1 2.2
2017-Nov-11 18:00N 47°33' W 122°21'1 1.4
2017-Nov-11 17:30N 47°34' W 122°21'2 3.4
2017-Nov-11 17:00N 47°35' W 122°22'2 3.2
2017-Nov-11 16:30N 47°34' W 122°21'0 0.0
2017-Nov-11 16:00N 47°34' W 122°21'0 0.0
2017-Nov-11 15:30N 47°34' W 122°21'0 0.0
2017-Nov-10 23:37N 47°34' W 122°21'1 6.7
2017-Nov-10 23:30N 47°33' W 122°21'1 1.4
2017-Nov-10 23:01N 47°33' W 122°20'3 6.3
2017-Nov-10 22:31N 47°36' W 122°22'0 0.7
2017-Nov-10 22:00N 47°35' W 122°22'3 5.9
2017-Nov-10 21:30N 47°33' W 122°20'2 4.6
2017-Nov-10 21:00N 47°35' W 122°22'1 1.2
2017-Nov-10 20:30N 47°35' W 122°22'3 5.7
2017-Nov-10 20:01N 47°33' W 122°20'0 0.8
2017-Nov-10 19:31N 47°33' W 122°20'1 2.1
2017-Nov-10 19:00N 47°34' W 122°21'1 1.9
2017-Nov-10 18:31N 47°35' W 122°22'1 2.2
2017-Nov-10 18:01N 47°36' W 122°23'1 1.1
2017-Nov-10 17:30N 47°36' W 122°22'0 0.8
2017-Nov-10 17:01N 47°35' W 122°22'0 0.2
2017-Nov-10 16:30N 47°35' W 122°22'2 4.7
2017-Nov-10 16:00N 47°33' W 122°21'1 2.7
2017-Nov-10 15:30N 47°34' W 122°21'1 1.3
2017-Nov-10 15:00N 47°34' W 122°21'0 0.2
2017-Nov-10 14:30N 47°34' W 122°21'0 0.0
2017-Nov-10 14:01N 47°34' W 122°21'0 0.0
2017-Nov-10 13:30N 47°34' W 122°21'0 0.0
2017-Nov-10 13:01N 47°34' W 122°21'0 0.0
2017-Nov-10 12:30N 47°34' W 122°21'0 0.0
2017-Nov-10 12:01N 47°34' W 122°21'0 0.0
2017-Nov-10 11:31N 47°34' W 122°21'0 0.0
2017-Nov-10 11:01N 47°34' W 122°21'0 0.0
2017-Nov-10 10:31N 47°34' W 122°21'0 0.0
2017-Nov-10 10:01N 47°34' W 122°21'0 0.0
2017-Nov-10 09:31N 47°34' W 122°21'0 0.0
2017-Nov-10 09:01N 47°34' W 122°21'0 0.0
2017-Nov-10 08:31N 47°34' W 122°21'0 0.0
2017-Nov-10 08:01N 47°34' W 122°21'0 0.0
2017-Nov-10 07:31N 47°34' W 122°21'0 0.0
2017-Nov-10 07:01N 47°34' W 122°21'0 0.0
2017-Nov-10 06:30N 47°34' W 122°21'0 0.0
2017-Nov-10 06:00N 47°34' W 122°21'1 1.7
2017-Nov-10 05:31N 47°33' W 122°21'1 1.3
2017-Nov-10 04:59N 47°34' W 122°21'0 0.3
2017-Nov-10 04:27N 47°34' W 122°21'0 0.0
2017-Nov-10 03:56N 47°34' W 122°21'0 0.0
2017-Nov-10 03:28N 47°34' W 122°21'0 0.0
2017-Nov-10 02:50N 47°34' W 122°21'0 0.0
2017-Nov-10 02:26N 47°34' W 122°21'0 0.0
2017-Nov-10 01:59N 47°34' W 122°21'0 0.0
2017-Nov-10 01:30N 47°34' W 122°21'0 0.1
2017-Nov-10 01:00N 47°34' W 122°21'  
Track history (hours):
 
Tides and Currents Weather Stations Pressure Air Temp Water Temp Dewpoint Dewpoint Depression Visibility Wind Speed Wind Dir Waves Ship Positions

Westrac

Owner: WESTERN TOWBOAT CO, SEATTLE, WA. More information available from US FCC via Universal Licensing System and Coast Guard Vessel Documentation Center.

Last reported at 2017-Nov-20 00:30 UTC. Time now 2017-Nov-20 07:49 UTC.
Position N 47°37' W 122°23'.

Length 23 m; draft 5 m.

Type: Tug. MMSI: 366993010.

Date/timePositionNaut miles runAvg speedWind from/ knotsBaromVisibWave heightAir tempDewpointWater temp
2017-Nov-20 00:30N 47°37' W 122°23'1 1.4
2017-Nov-20 00:00N 47°38' W 122°24'1 1.6
2017-Nov-19 23:30N 47°38' W 122°23'0 0.3
2017-Nov-19 23:00N 47°38' W 122°23'0 0.0
2017-Nov-19 22:30N 47°38' W 122°23'0 0.2
2017-Nov-19 22:00N 47°38' W 122°23'0 0.0
2017-Nov-19 21:30N 47°38' W 122°23'0 0.0
2017-Nov-19 21:01N 47°38' W 122°23'1 1.8
2017-Nov-19 20:30N 47°37' W 122°22'3 6.3
2017-Nov-19 20:00N 47°34' W 122°21'0 0.9
2017-Nov-19 19:30N 47°33' W 122°21'2 4.2
2017-Nov-19 19:00N 47°35' W 122°22'0 0.9
2017-Nov-19 18:30N 47°35' W 122°22'0 0.1
2017-Nov-19 18:00N 47°35' W 122°22'0 0.0
2017-Nov-19 17:30N 47°35' W 122°22'0 0.0
2017-Nov-19 17:00N 47°35' W 122°22'0 0.0
2017-Nov-19 16:30N 47°35' W 122°22'1 1.7
2017-Nov-19 16:00N 47°35' W 122°21'0 0.5
2017-Nov-19 15:30N 47°35' W 122°22'1 2.4
2017-Nov-19 15:00N 47°34' W 122°21'0 0.0
2017-Nov-19 14:30N 47°34' W 122°21'0 0.0
2017-Nov-19 14:00N 47°34' W 122°21'0 0.0
2017-Nov-19 13:30N 47°34' W 122°21'0 0.0
2017-Nov-19 13:00N 47°34' W 122°21'0 0.0
2017-Nov-19 12:30N 47°34' W 122°21'0 0.0
2017-Nov-19 12:00N 47°34' W 122°21'0 0.0
2017-Nov-19 11:30N 47°34' W 122°21'1 2.0
2017-Nov-19 11:00N 47°33' W 122°21'0 0.2
2017-Nov-19 10:30N 47°33' W 122°21'0 0.3
2017-Nov-19 10:00N 47°33' W 122°20'2 4.3
2017-Nov-19 09:30N 47°35' W 122°22'0 0.3
2017-Nov-19 09:00N 47°35' W 122°21'0 0.0
2017-Nov-19 08:30N 47°35' W 122°21'0 0.0
2017-Nov-19 07:59N 47°35' W 122°21'0 0.0
2017-Nov-19 07:30N 47°35' W 122°21'0 0.0
2017-Nov-19 07:00N 47°35' W 122°21'0 0.0
2017-Nov-19 06:30N 47°35' W 122°21'0 0.6
2017-Nov-19 06:00N 47°35' W 122°21'0 0.7
2017-Nov-19 05:30N 47°36' W 122°21'0 0.7
2017-Nov-19 05:00N 47°35' W 122°21'0 0.0
2017-Nov-19 04:30N 47°35' W 122°21'0 0.0
2017-Nov-19 04:00N 47°35' W 122°21'0 0.0
2017-Nov-19 03:30N 47°35' W 122°21'1 2.6
2017-Nov-19 03:00N 47°34' W 122°21'1 1.7
2017-Nov-19 02:30N 47°33' W 122°21'1 0.1
2017-Nov-18 18:44N 47°34' W 122°21'1 3.8
2017-Nov-18 18:30N 47°33' W 122°21'1 1.1
2017-Nov-18 18:00N 47°33' W 122°20'1 1.1
2017-Nov-18 17:30N 47°33' W 122°21'1 1.5
2017-Nov-18 17:00N 47°34' W 122°21'2 3.4
2017-Nov-18 16:30N 47°36' W 122°22'3 5.0
2017-Nov-18 16:00N 47°33' W 122°21'0 0.1
2017-Nov-18 15:30N 47°33' W 122°21'0 0.0
2017-Nov-18 15:00N 47°33' W 122°21'1 1.1
2017-Nov-18 14:30N 47°33' W 122°20'1 1.0
2017-Nov-18 14:00N 47°32' W 122°20'2 3.9
2017-Nov-18 13:30N 47°34' W 122°21'0 0.0
2017-Nov-18 13:00N 47°34' W 122°21'0 0.0
2017-Nov-18 12:30N 47°34' W 122°21'0 0.0
2017-Nov-18 12:00N 47°34' W 122°21'0 0.0
2017-Nov-18 11:30N 47°34' W 122°21'0 0.0
2017-Nov-18 11:00N 47°34' W 122°21'0 0.0
2017-Nov-18 10:30N 47°34' W 122°21'0 0.0
2017-Nov-18 10:00N 47°34' W 122°21'0 0.0
2017-Nov-18 09:30N 47°34' W 122°21'0 0.0
2017-Nov-18 09:00N 47°34' W 122°21'0 0.0
2017-Nov-18 08:30N 47°34' W 122°21'0 0.0
2017-Nov-18 08:00N 47°34' W 122°21'0 0.0
2017-Nov-18 07:30N 47°34' W 122°21'0 0.0
2017-Nov-18 07:00N 47°34' W 122°21'0 0.0
2017-Nov-18 06:30N 47°34' W 122°21'0 0.0
2017-Nov-18 06:00N 47°34' W 122°21'0 0.0
2017-Nov-18 05:30N 47°34' W 122°21'0 0.0
2017-Nov-18 04:58N 47°34' W 122°21'0 0.2
2017-Nov-18 04:30N 47°34' W 122°21'2 3.1
2017-Nov-18 04:00N 47°36' W 122°22'3 5.7
2017-Nov-18 03:30N 47°33' W 122°20'1 1.0
2017-Nov-18 03:00N 47°33' W 122°21'1 2.9
2017-Nov-18 02:30N 47°35' W 122°22'1 3.0
2017-Nov-18 02:00N 47°33' W 122°21'0 0.1
2017-Nov-18 01:30N 47°33' W 122°21'3 5.1
2017-Nov-18 01:00N 47°35' W 122°22'2 3.4
2017-Nov-18 00:30N 47°34' W 122°21'1 1.5
2017-Nov-18 00:00N 47°35' W 122°22'0 0.1
2017-Nov-17 23:30N 47°35' W 122°22'0 0.5
2017-Nov-17 23:00N 47°35' W 122°22'2 3.8
2017-Nov-17 22:30N 47°33' W 122°20'3 5.6
2017-Nov-17 22:00N 47°35' W 122°21'3 5.4
2017-Nov-17 21:30N 47°33' W 122°20'0 0.9
2017-Nov-17 21:00N 47°33' W 122°20'0 0.3
2017-Nov-17 20:30N 47°33' W 122°20'3 5.6
2017-Nov-17 20:00N 47°35' W 122°20'1 1.1
2017-Nov-17 19:30N 47°36' W 122°21'0 0.7
2017-Nov-17 19:00N 47°36' W 122°22'0 0.6
2017-Nov-17 18:30N 47°36' W 122°21'0 0.3
2017-Nov-17 18:00N 47°36' W 122°21'0 0.2
2017-Nov-17 17:30N 47°36' W 122°21'0 1.0
2017-Nov-17 17:00N 47°35' W 122°21'1 2.1
2017-Nov-17 16:30N 47°35' W 122°22'1 0.0
2017-Nov-16 03:09N 47°34' W 122°21'0 0.9
2017-Nov-16 03:00N 47°34' W 122°21'1 1.4
2017-Nov-16 02:30N 47°33' W 122°21'0 0.7
2017-Nov-16 02:00N 47°33' W 122°20'2 4.0
2017-Nov-16 01:30N 47°35' W 122°22'2 3.9
2017-Nov-16 01:01N 47°33' W 122°20'1 2.0
2017-Nov-16 00:30N 47°34' W 122°21'0 0.9
2017-Nov-16 00:01N 47°34' W 122°21'2 3.4
2017-Nov-15 23:30N 47°33' W 122°20'0 0.0
2017-Nov-15 23:00N 47°33' W 122°20'3 6.0
2017-Nov-15 22:30N 47°36' W 122°22'2 3.4
2017-Nov-15 22:00N 47°34' W 122°21'1 1.8
2017-Nov-15 21:30N 47°33' W 122°21'0 0.0
2017-Nov-15 21:00N 47°33' W 122°21'1 1.2
2017-Nov-15 20:30N 47°33' W 122°20'3 5.4
2017-Nov-15 20:00N 47°35' W 122°22'1 1.4
2017-Nov-15 19:30N 47°35' W 122°21'1 2.8
2017-Nov-15 19:00N 47°34' W 122°21'0 0.1
2017-Nov-15 18:30N 47°34' W 122°21'1 3.0
2017-Nov-15 18:01N 47°35' W 122°22'3 5.4
2017-Nov-15 17:29N 47°33' W 122°20'1 1.7
2017-Nov-15 17:00N 47°33' W 122°21'2 3.9
2017-Nov-15 16:30N 47°35' W 122°21'1 1.6
2017-Nov-15 16:00N 47°35' W 122°22'2 4.0
2017-Nov-15 15:30N 47°33' W 122°20'1 3.0
2017-Nov-15 15:00N 47°34' W 122°21'0 0.0
2017-Nov-15 14:30N 47°34' W 122°21'0 0.0
2017-Nov-15 14:00N 47°34' W 122°21'0 0.0
2017-Nov-15 01:56N 47°34' W 122°21'2 3.9
2017-Nov-15 01:30N 47°35' W 122°22'2 3.4
2017-Nov-15 01:00N 47°34' W 122°21'1 2.5
2017-Nov-15 00:30N 47°33' W 122°20'2 3.2
2017-Nov-15 00:00N 47°34' W 122°21'1 2.0
2017-Nov-14 23:30N 47°35' W 122°21'1 1.8
2017-Nov-14 23:00N 47°34' W 122°21'1 2.6
2017-Nov-14 22:30N 47°33' W 122°21'2 4.8
2017-Nov-14 22:00N 47°35' W 122°22'2 3.2
2017-Nov-14 21:30N 47°34' W 122°21'1 1.5
2017-Nov-14 21:00N 47°33' W 122°21'0 0.3
2017-Nov-14 20:30N 47°33' W 122°21'0 0.4
2017-Nov-14 20:00N 47°33' W 122°21'0 0.7
2017-Nov-14 19:30N 47°33' W 122°20'0 0.6
2017-Nov-14 19:00N 47°33' W 122°21'0 0.1
2017-Nov-14 18:30N 47°33' W 122°21'2 4.7
2017-Nov-14 18:00N 47°36' W 122°22'2 3.7
2017-Nov-14 17:30N 47°34' W 122°21'1 2.8
2017-Nov-14 17:00N 47°32' W 122°20'1 1.6
2017-Nov-14 16:30N 47°33' W 122°21'2 3.6
2017-Nov-14 16:00N 47°35' W 122°22'0 0.3
2017-Nov-14 15:30N 47°35' W 122°22'1 2.0
2017-Nov-14 15:00N 47°34' W 122°21'0 0.0
2017-Nov-14 14:30N 47°34' W 122°21'0 0.0
2017-Nov-14 14:00N 47°34' W 122°21'0 0.0
2017-Nov-14 13:30N 47°34' W 122°21'0 0.0
2017-Nov-14 13:00N 47°34' W 122°21'0 0.0
2017-Nov-14 12:30N 47°34' W 122°21'0 0.0
2017-Nov-14 12:00N 47°34' W 122°21'0 0.0
2017-Nov-14 11:30N 47°34' W 122°21'0 0.0
2017-Nov-14 11:00N 47°34' W 122°21'0 0.0
2017-Nov-14 10:30N 47°34' W 122°21'0 0.0
2017-Nov-14 10:00N 47°34' W 122°21'0 0.0
2017-Nov-14 09:30N 47°34' W 122°21'0 0.0
2017-Nov-14 09:00N 47°34' W 122°21'0 0.0
2017-Nov-14 08:30N 47°34' W 122°21'0 0.0
2017-Nov-14 08:00N 47°34' W 122°21'0 0.0
2017-Nov-14 07:31N 47°34' W 122°21'0 0.0
2017-Nov-14 07:00N 47°34' W 122°21'0 0.0
2017-Nov-14 06:30N 47°34' W 122°21'1 1.7
2017-Nov-14 06:00N 47°33' W 122°21'0 0.3
2017-Nov-14 05:30N 47°33' W 122°21'0 0.0
2017-Nov-14 05:00N 47°33' W 122°21'1 1.9
2017-Nov-14 04:30N 47°34' W 122°21'0 0.0
2017-Nov-14 04:00N 47°34' W 122°21'0 0.0
2017-Nov-14 03:30N 47°34' W 122°21'0 0.0
2017-Nov-14 03:00N 47°34' W 122°21'0 0.0
2017-Nov-14 02:30N 47°34' W 122°21'0 0.7
2017-Nov-14 02:00N 47°34' W 122°21'1 2.4
2017-Nov-14 01:30N 47°35' W 122°21'0 0.3
2017-Nov-14 01:00N 47°35' W 122°21'1 1.8
2017-Nov-14 00:30N 47°36' W 122°22'0 0.1
2017-Nov-14 00:00N 47°36' W 122°22'2 3.5
2017-Nov-13 23:30N 47°34' W 122°21'1 1.5
2017-Nov-13 23:00N 47°33' W 122°21'1 1.3
2017-Nov-13 22:30N 47°33' W 122°20'2 3.9
2017-Nov-13 22:00N 47°35' W 122°21'1 0.0
2017-Nov-13 02:01N 47°35' W 122°21'1 2.6
2017-Nov-13 01:30N 47°34' W 122°21'1 2.1
2017-Nov-13 01:00N 47°33' W 122°20'0 0.3
2017-Nov-13 00:30N 47°33' W 122°21'0 0.4
2017-Nov-13 00:00N 47°33' W 122°21'1 1.4
2017-Nov-12 23:30N 47°34' W 122°21'0 0.0
2017-Nov-11 22:48N 47°34' W 122°21'2 8.1
2017-Nov-11 22:30N 47°36' W 122°23'611.6
2017-Nov-11 22:00N 47°34' W 122°31'4 8.6
2017-Nov-11 21:30N 47°33' W 122°37'2 4.9
2017-Nov-11 21:00N 47°32' W 122°41'3 6.6
2017-Nov-11 20:30N 47°34' W 122°36'3 6.0
2017-Nov-11 20:00N 47°35' W 122°33'3 5.4
2017-Nov-11 19:30N 47°34' W 122°29'4 7.0
2017-Nov-11 19:00N 47°36' W 122°24'2 5.0
2017-Nov-11 18:31N 47°34' W 122°21'1 2.2
2017-Nov-11 18:00N 47°33' W 122°21'1 1.4
2017-Nov-11 17:30N 47°34' W 122°21'2 3.4
2017-Nov-11 17:00N 47°35' W 122°22'2 3.2
2017-Nov-11 16:30N 47°34' W 122°21'0 0.0
2017-Nov-11 16:00N 47°34' W 122°21'0 0.0
2017-Nov-11 15:30N 47°34' W 122°21'0 0.0
2017-Nov-10 23:37N 47°34' W 122°21'1 6.7
2017-Nov-10 23:30N 47°33' W 122°21'1 1.4
2017-Nov-10 23:01N 47°33' W 122°20'3 6.3
2017-Nov-10 22:31N 47°36' W 122°22'0 0.7
2017-Nov-10 22:00N 47°35' W 122°22'3 5.9
2017-Nov-10 21:30N 47°33' W 122°20'2 4.6
2017-Nov-10 21:00N 47°35' W 122°22'1 1.2
2017-Nov-10 20:30N 47°35' W 122°22'3 5.7
2017-Nov-10 20:01N 47°33' W 122°20'0 0.8
2017-Nov-10 19:31N 47°33' W 122°20'1 2.1
2017-Nov-10 19:00N 47°34' W 122°21'1 1.9
2017-Nov-10 18:31N 47°35' W 122°22'1 2.2
2017-Nov-10 18:01N 47°36' W 122°23'1 1.1
2017-Nov-10 17:30N 47°36' W 122°22'0 0.8
2017-Nov-10 17:01N 47°35' W 122°22'0 0.2
2017-Nov-10 16:30N 47°35' W 122°22'2 4.7
2017-Nov-10 16:00N 47°33' W 122°21'1 2.7
2017-Nov-10 15:30N 47°34' W 122°21'1 1.3
2017-Nov-10 15:00N 47°34' W 122°21'0 0.2
2017-Nov-10 14:30N 47°34' W 122°21'0 0.0
2017-Nov-10 14:01N 47°34' W 122°21'0 0.0
2017-Nov-10 13:30N 47°34' W 122°21'0 0.0
2017-Nov-10 13:01N 47°34' W 122°21'0 0.0
2017-Nov-10 12:30N 47°34' W 122°21'0 0.0
2017-Nov-10 12:01N 47°34' W 122°21'0 0.0
2017-Nov-10 11:31N 47°34' W 122°21'0 0.0
2017-Nov-10 11:01N 47°34' W 122°21'0 0.0
2017-Nov-10 10:31N 47°34' W 122°21'0 0.0
2017-Nov-10 10:01N 47°34' W 122°21'0 0.0
2017-Nov-10 09:31N 47°34' W 122°21'0 0.0
2017-Nov-10 09:01N 47°34' W 122°21'0 0.0
2017-Nov-10 08:31N 47°34' W 122°21'0 0.0
2017-Nov-10 08:01N 47°34' W 122°21'0 0.0
2017-Nov-10 07:31N 47°34' W 122°21'0 0.0
2017-Nov-10 07:01N 47°34' W 122°21'0 0.0
2017-Nov-10 06:30N 47°34' W 122°21'0 0.0
2017-Nov-10 06:00N 47°34' W 122°21'1 1.7
2017-Nov-10 05:31N 47°33' W 122°21'1 1.3
2017-Nov-10 04:59N 47°34' W 122°21'0 0.3
2017-Nov-10 04:27N 47°34' W 122°21'0 0.0
2017-Nov-10 03:56N 47°34' W 122°21'0 0.0
2017-Nov-10 03:28N 47°34' W 122°21'0 0.0
2017-Nov-10 02:50N 47°34' W 122°21'0 0.0
2017-Nov-10 02:26N 47°34' W 122°21'0 0.0
2017-Nov-10 01:59N 47°34' W 122°21'0 0.0
2017-Nov-10 01:30N 47°34' W 122°21'0 0.1
2017-Nov-10 01:00N 47°34' W 122°21'  

Dump ship's entire track history